Terminal Aerodrome Forecast
Issued by NWS Paducah, KY

Home | Current Version | Previous Version | Text Only | Print | Product List | Glossary On
Versions: 1 2 3 4 5 6 7 8 9
000
FTUS43 KPAH 141723
TAFPAH
TAF
KPAH 141723Z 1418/1518 09008KT P6SM SCT150
     FM150100 VRB02KT P6SM SCT250
     FM150900 00000KT 5SM BR FEW250
     FM151500 20005KT P6SM SCT250=

USA.gov is the U.S. government's official web portal to all federal, state and local government web resources and services.